createdAt,value
2023-01-30T00:00:16.508Z,100200.38
2023-01-30T00:01:21.881Z,100200.80
2023-01-30T00:02:29.780Z,100197.59
2023-01-30T00:03:33.264Z,100191.02
2023-01-30T00:04:36.673Z,100196.91
2023-01-30T00:05:39.452Z,100186.92
2023-01-30T00:06:42.013Z,100189.30
2023-01-30T00:07:47.644Z,100191.75
2023-01-30T00:08:51.668Z,100190.94
2023-01-30T00:09:55.231Z,100184.93
2023-01-30T00:10:58.539Z,100185.66
2023-01-30T00:12:01.751Z,100181.87
2023-01-30T00:13:04.051Z,100177.33
2023-01-30T00:14:08.469Z,100173.77
2023-01-30T00:15:12.044Z,100170.09
2023-01-30T00:16:16.617Z,100170.05
2023-01-30T00:17:18.839Z,100170.73
2023-01-30T00:18:22.017Z,100173.39
2023-01-30T00:19:25.326Z,100173.34
2023-01-30T00:20:28.832Z,100178.75
2023-01-30T00:21:32.339Z,100174.62
2023-01-30T00:22:38.245Z,100170.34
2023-01-30T00:23:42.061Z,100171.23
2023-01-30T00:24:45.407Z,100172.37
2023-01-30T00:25:47.917Z,100171.11
2023-01-30T00:26:51.642Z,100166.66
2023-01-30T00:27:56.190Z,100170.42
2023-01-30T00:29:01.989Z,100172.72
2023-01-30T00:30:10.056Z,100165.77
2023-01-30T00:31:15.993Z,100168.27
2023-01-30T00:32:20.193Z,100165.52
2023-01-30T00:33:26.570Z,100157.43
2023-01-30T00:34:30.263Z,100160.50
2023-01-30T00:35:35.552Z,100155.63
2023-01-30T00:36:38.882Z,100157.75
2023-01-30T00:37:43.590Z,100153.14
2023-01-30T00:38:48.736Z,100154.61
2023-01-30T00:39:56.156Z,100143.78
2023-01-30T00:40:59.576Z,100155.96
2023-01-30T00:42:21.213Z,100145.67
2023-01-30T00:43:43.583Z,100155.96
2023-01-30T00:45:03.957Z,100148.52
2023-01-30T00:46:27.837Z,100153.22
2023-01-30T00:47:31.529Z,100145.67
2023-01-30T00:48:36.135Z,100150.81
2023-01-30T00:49:40.858Z,100145.59
2023-01-30T00:50:45.408Z,100145.33
2023-01-30T00:51:48.795Z,100142.55
2023-01-30T00:52:52.210Z,100136.88
2023-01-30T00:53:55.705Z,100140.77
2023-01-30T00:54:58.829Z,100135.66
2023-01-30T00:56:04.106Z,100134.72
2023-01-30T00:57:08.527Z,100133.86
2023-01-30T00:58:11.835Z,100139.25
2023-01-30T00:59:14.502Z,100129.53
2023-01-30T01:00:18.937Z,100137.20
2023-01-30T01:01:22.549Z,100131.70
2023-01-30T01:02:26.473Z,100128.91
2023-01-30T01:03:29.141Z,100132.38
2023-01-30T01:04:33.899Z,100129.00
2023-01-30T01:05:37.408Z,100121.72
2023-01-30T01:06:40.179Z,100115.70
2023-01-30T01:07:42.532Z,100110.52
2023-01-30T01:08:45.888Z,100113.35
2023-01-30T01:09:50.276Z,100101.95
2023-01-30T01:10:53.145Z,100102.20
2023-01-30T01:11:58.534Z,100105.63
2023-01-30T01:13:02.042Z,100108.25
2023-01-30T01:14:07.126Z,100101.51
2023-01-30T01:15:10.933Z,100099.99
2023-01-30T01:16:14.334Z,100092.52
2023-01-30T01:17:17.734Z,100092.94
2023-01-30T01:18:22.095Z,100090.16
2023-01-30T01:19:25.474Z,100092.73
2023-01-30T01:20:28.861Z,100093.02
2023-01-30T01:21:32.516Z,100094.69
2023-01-30T01:22:37.439Z,100092.08
2023-01-30T01:23:39.692Z,100091.87
2023-01-30T01:24:43.091Z,100090.98
2023-01-30T01:25:46.614Z,100089.88
2023-01-30T01:26:52.364Z,100095.92
2023-01-30T01:28:01.972Z,100093.34
2023-01-30T01:29:05.049Z,100095.02
2023-01-30T01:30:10.256Z,100097.55
2023-01-30T01:31:14.483Z,100099.06
2023-01-30T01:32:17.978Z,100098.00
2023-01-30T01:33:23.382Z,100098.08
2023-01-30T01:34:26.971Z,100095.30
2023-01-30T01:35:29.222Z,100093.70
2023-01-30T01:37:02.457Z,100089.88
2023-01-30T01:37:39.268Z,100091.87
2023-01-30T01:38:44.124Z,100081.95
2023-01-30T01:40:07.371Z,100087.66
2023-01-30T01:41:12.472Z,100089.59
2023-01-30T01:42:16.160Z,100088.56
2023-01-30T01:43:25.374Z,100085.09
2023-01-30T01:44:27.871Z,100079.48
2023-01-30T01:45:30.956Z,100081.28
2023-01-30T01:46:38.418Z,100079.56
2023-01-30T01:47:42.558Z,100087.29
2023-01-30T01:48:47.665Z,100075.93
2023-01-30T01:49:51.083Z,100083.47
2023-01-30T01:50:56.317Z,100088.36
2023-01-30T01:52:03.593Z,100079.01
2023-01-30T01:53:07.605Z,100079.25
2023-01-30T01:54:11.835Z,100081.83
2023-01-30T01:55:18.026Z,100078.77
2023-01-30T01:56:21.775Z,100079.50
2023-01-30T01:57:26.957Z,100079.75
2023-01-30T01:58:34.430Z,100087.27
2023-01-30T01:59:44.551Z,100080.16
2023-01-30T02:00:49.142Z,100071.02
2023-01-30T02:01:53.182Z,100071.87
2023-01-30T02:02:57.729Z,100067.22
2023-01-30T02:04:01.905Z,100071.26
2023-01-30T02:05:06.253Z,100068.61
2023-01-30T02:06:13.582Z,100067.75
2023-01-30T02:07:19.910Z,100069.21
2023-01-30T02:08:26.128Z,100059.50
2023-01-30T02:09:29.654Z,100066.31
2023-01-30T02:10:37.423Z,100063.58
2023-01-30T02:11:46.674Z,100067.30
2023-01-30T02:12:51.534Z,100067.63
2023-01-30T02:13:57.577Z,100059.74
2023-01-30T02:15:01.367Z,100061.58
2023-01-30T02:16:05.887Z,100062.27
2023-01-30T02:17:09.421Z,100065.01
2023-01-30T02:18:16.688Z,100058.16
2023-01-30T02:19:39.407Z,100060.92
2023-01-30T02:20:50.119Z,100053.91
2023-01-30T02:23:21.674Z,100058.39
2023-01-30T02:24:43.969Z,100062.19
2023-01-30T02:26:04.525Z,100045.13
2023-01-30T02:27:25.881Z,100053.33
2023-01-30T02:28:47.644Z,100047.08
2023-01-30T02:29:52.413Z,100048.22
2023-01-30T02:31:06.874Z,100042.23
2023-01-30T02:32:28.465Z,100045.32
2023-01-30T02:33:34.089Z,100037.81
2023-01-30T02:34:50.863Z,100040.22
2023-01-30T02:35:56.281Z,100032.75
2023-01-30T02:37:03.377Z,100038.27
2023-01-30T02:38:11.882Z,100032.03
2023-01-30T02:39:21.875Z,100027.70
2023-01-30T02:40:28.408Z,100037.81
2023-01-30T02:41:51.757Z,100040.18
2023-01-30T02:43:02.051Z,100034.38
2023-01-30T02:44:13.807Z,100027.11
2023-01-30T02:45:19.141Z,100027.41
2023-01-30T02:46:24.811Z,100025.44
2023-01-30T02:47:33.820Z,100027.88
2023-01-30T02:48:42.246Z,100019.84
2023-01-30T02:49:48.468Z,100023.60
2023-01-30T02:50:54.895Z,100021.93
2023-01-30T02:52:00.529Z,100020.05
2023-01-30T02:53:06.384Z,100017.09
2023-01-30T02:54:12.929Z,100021.80
2023-01-30T02:55:27.400Z,100021.80
2023-01-30T02:56:30.401Z,100018.03
2023-01-30T02:57:36.705Z,100020.00
2023-01-30T02:58:43.449Z,100008.78
2023-01-30T02:59:49.775Z,100001.50
2023-01-30T03:00:55.378Z,100006.20
2023-01-30T03:02:00.011Z,100009.81
2023-01-30T03:03:10.212Z,100005.17
2023-01-30T03:04:18.727Z,100009.59
2023-01-30T03:05:28.006Z,100005.98
2023-01-30T03:06:51.751Z,100003.72
2023-01-30T03:07:56.896Z,100003.20
2023-01-30T03:09:12.851Z,99999.40
2023-01-30T03:10:24.201Z,100002.60
2023-01-30T03:11:32.217Z,99999.17
2023-01-30T03:12:43.825Z,99994.04
2023-01-30T03:13:58.518Z,100001.88
2023-01-30T03:15:05.797Z,100002.69
2023-01-30T03:16:11.730Z,99995.84
2023-01-30T03:17:17.298Z,99992.49
2023-01-30T03:18:20.476Z,99998.02
2023-01-30T03:19:24.407Z,100000.52
2023-01-30T03:20:28.744Z,99997.81
2023-01-30T03:21:32.364Z,99994.47
2023-01-30T03:22:40.111Z,99993.05
2023-01-30T03:23:44.604Z,99999.05
2023-01-30T03:24:48.817Z,99993.05
2023-01-30T03:25:52.216Z,99986.20
2023-01-30T03:26:56.773Z,99997.72
2023-01-30T03:28:02.731Z,99986.33
2023-01-30T03:29:06.822Z,99991.85
2023-01-30T03:30:11.050Z,99982.08
2023-01-30T03:31:14.786Z,99985.55
2023-01-30T03:32:20.986Z,99991.89
2023-01-30T03:33:25.693Z,99985.29
2023-01-30T03:34:31.771Z,99988.80
2023-01-30T03:35:35.959Z,99986.54
2023-01-30T03:36:39.279Z,99989.11
2023-01-30T03:37:41.746Z,99984.70
2023-01-30T03:38:45.155Z,99989.97
2023-01-30T03:39:48.653Z,99983.32
2023-01-30T03:40:52.932Z,99983.16
2023-01-30T03:41:58.909Z,99983.06
2023-01-30T03:43:05.985Z,99987.34
2023-01-30T03:44:09.878Z,99982.34
2023-01-30T03:45:15.202Z,99980.75
2023-01-30T03:46:19.462Z,99979.89
2023-01-30T03:47:23.215Z,99977.50
2023-01-30T03:48:27.557Z,99979.27
2023-01-30T03:49:31.168Z,99974.84
2023-01-30T03:50:35.831Z,99969.91
2023-01-30T03:51:40.683Z,99967.17
2023-01-30T03:52:43.872Z,99965.63
2023-01-30T03:53:49.056Z,99969.05
2023-01-30T03:54:52.286Z,99967.22
2023-01-30T03:55:56.195Z,99974.50
2023-01-30T03:57:01.253Z,99972.70
2023-01-30T03:58:05.054Z,99965.16
2023-01-30T03:59:10.199Z,99966.78
2023-01-30T04:00:16.235Z,99962.15
2023-01-30T04:01:22.469Z,99961.97
2023-01-30T04:02:26.875Z,99959.20
2023-01-30T04:03:30.220Z,99965.42
2023-01-30T04:04:36.325Z,99952.09
2023-01-30T04:05:42.227Z,99954.70
2023-01-30T04:06:45.340Z,99952.09
2023-01-30T04:07:49.656Z,99961.91
2023-01-30T04:08:54.244Z,99951.80
2023-01-30T04:09:59.596Z,99946.19
2023-01-30T04:11:03.067Z,99952.69
2023-01-30T04:12:07.228Z,99948.53
2023-01-30T04:13:12.336Z,99948.63
2023-01-30T04:14:15.407Z,99948.80
2023-01-30T04:15:32.143Z,99945.75
2023-01-30T04:16:49.774Z,99946.14
2023-01-30T04:18:13.025Z,99950.28
2023-01-30T04:19:33.424Z,99941.00
2023-01-30T04:20:37.046Z,99943.02
2023-01-30T04:21:40.643Z,99939.64
2023-01-30T04:22:43.853Z,99934.79
2023-01-30T04:23:48.190Z,99941.09
2023-01-30T04:24:52.614Z,99940.87
2023-01-30T04:25:56.944Z,99933.80
2023-01-30T04:27:00.358Z,99942.58
2023-01-30T04:28:05.151Z,99929.88
2023-01-30T04:29:10.408Z,99929.38
2023-01-30T04:30:14.539Z,99927.47
2023-01-30T04:31:18.399Z,99929.19
2023-01-30T04:32:36.499Z,99927.52
2023-01-30T04:33:39.786Z,99934.19
2023-01-30T04:34:45.514Z,99928.77
2023-01-30T04:35:59.138Z,99935.53
2023-01-30T04:37:01.986Z,99934.75
2023-01-30T04:38:05.087Z,99938.32
2023-01-30T04:39:08.405Z,99942.30
2023-01-30T04:40:12.955Z,99944.16
2023-01-30T04:41:16.329Z,99951.19
2023-01-30T04:42:20.898Z,99943.67
2023-01-30T04:43:26.607Z,99947.37
2023-01-30T04:44:45.755Z,99943.34
2023-01-30T04:45:52.976Z,99939.53
2023-01-30T04:46:56.519Z,99941.09
2023-01-30T04:48:00.781Z,99946.42
2023-01-30T04:49:04.040Z,99948.77
2023-01-30T04:50:08.290Z,99945.91
2023-01-30T04:51:11.262Z,99942.95
2023-01-30T04:52:14.671Z,99947.01
2023-01-30T04:53:19.117Z,99936.55
2023-01-30T04:54:22.923Z,99940.15
2023-01-30T04:55:26.146Z,99941.59
2023-01-30T04:56:29.359Z,99935.25
2023-01-30T04:57:31.710Z,99937.49
2023-01-30T04:58:35.840Z,99927.48
2023-01-30T04:59:39.418Z,99934.88
2023-01-30T05:00:43.348Z,99935.00
2023-01-30T05:01:45.720Z,99919.52
2023-01-30T05:02:49.721Z,99913.15
2023-01-30T05:03:54.159Z,99918.56
2023-01-30T05:04:56.836Z,99920.82
2023-01-30T05:06:00.234Z,99913.79
2023-01-30T05:07:02.491Z,99922.44
2023-01-30T05:08:06.420Z,99922.98
2023-01-30T05:09:10.370Z,99929.97
2023-01-30T05:10:13.314Z,99922.48
2023-01-30T05:11:16.935Z,99921.32
2023-01-30T05:12:20.638Z,99916.63
2023-01-30T05:13:25.199Z,99917.85
2023-01-30T05:14:28.798Z,99920.47
2023-01-30T05:15:32.262Z,99923.94
2023-01-30T05:16:34.764Z,99922.34
2023-01-30T05:17:38.164Z,99916.71
2023-01-30T05:18:41.982Z,99918.39
2023-01-30T05:19:45.201Z,99906.94
2023-01-30T05:20:48.679Z,99914.55
2023-01-30T05:21:52.600Z,99905.45
2023-01-30T05:22:54.956Z,99902.37
2023-01-30T05:23:59.392Z,99907.50
2023-01-30T05:25:01.642Z,99908.98
2023-01-30T05:26:04.531Z,99909.89
2023-01-30T05:27:11.093Z,99902.73
2023-01-30T05:28:14.887Z,99909.68
2023-01-30T05:29:20.159Z,99903.07
2023-01-30T05:30:24.270Z,99912.61
2023-01-30T05:31:26.646Z,99900.77
2023-01-30T05:32:30.267Z,99901.08
2023-01-30T05:33:34.755Z,99901.08
2023-01-30T05:34:38.218Z,99898.83
2023-01-30T05:35:47.563Z,99888.96
2023-01-30T05:36:54.551Z,99890.58
2023-01-30T05:37:59.487Z,99890.62
2023-01-30T05:39:02.067Z,99893.42
2023-01-30T05:40:06.748Z,99885.27
2023-01-30T05:41:12.292Z,99891.31
2023-01-30T05:42:15.593Z,99881.38
2023-01-30T05:43:18.994Z,99884.28
2023-01-30T05:44:22.813Z,99882.28
2023-01-30T05:45:26.531Z,99886.84
2023-01-30T05:46:30.198Z,99881.72
2023-01-30T05:47:33.743Z,99884.59
2023-01-30T05:48:37.275Z,99883.38
2023-01-30T05:49:40.596Z,99881.66
2023-01-30T05:50:44.367Z,99875.80
2023-01-30T05:51:49.387Z,99877.20
2023-01-30T05:52:53.259Z,99878.37
2023-01-30T05:53:57.073Z,99876.34
2023-01-30T05:54:59.842Z,99875.74
2023-01-30T05:56:03.770Z,99875.47
2023-01-30T05:57:07.162Z,99870.23
2023-01-30T05:58:09.765Z,99872.83
2023-01-30T05:59:13.447Z,99872.29
2023-01-30T06:00:17.267Z,99872.52
2023-01-30T06:01:20.939Z,99874.66
2023-01-30T06:02:23.582Z,99861.59
2023-01-30T06:03:26.864Z,99864.16
2023-01-30T06:04:29.095Z,99865.38
2023-01-30T06:05:31.454Z,99872.64
2023-01-30T06:06:36.211Z,99864.53
2023-01-30T06:07:39.806Z,99870.47
2023-01-30T06:08:42.172Z,99868.19
2023-01-30T06:09:47.454Z,99869.61
2023-01-30T06:10:52.189Z,99872.23
2023-01-30T06:11:57.164Z,99870.13
2023-01-30T06:13:01.208Z,99860.81
2023-01-30T06:14:04.326Z,99848.04
2023-01-30T06:15:08.146Z,99844.90
2023-01-30T06:16:13.176Z,99849.27
2023-01-30T06:17:17.003Z,99851.73
2023-01-30T06:18:22.605Z,99843.80
2023-01-30T06:19:29.542Z,99853.22
2023-01-30T06:20:32.966Z,99847.13
2023-01-30T06:21:35.839Z,99849.83
2023-01-30T06:22:40.061Z,99847.08
2023-01-30T06:24:04.145Z,99847.22
2023-01-30T06:25:06.700Z,99850.20
2023-01-30T06:26:10.444Z,99836.62
2023-01-30T06:27:15.181Z,99841.75
2023-01-30T06:28:18.679Z,99846.69
2023-01-30T06:29:22.087Z,99844.88
2023-01-30T06:30:25.242Z,99846.19
2023-01-30T06:31:27.545Z,99847.70
2023-01-30T06:32:31.169Z,99841.41
2023-01-30T06:33:35.674Z,99840.33
2023-01-30T06:34:41.027Z,99833.65
2023-01-30T06:35:44.291Z,99832.95
2023-01-30T06:36:47.759Z,99833.00
2023-01-30T06:37:50.953Z,99833.00
2023-01-30T06:38:55.225Z,99833.47
2023-01-30T06:39:58.183Z,99830.90
2023-01-30T06:41:00.452Z,99827.73
2023-01-30T06:42:03.938Z,99829.34
2023-01-30T06:43:08.068Z,99835.88
2023-01-30T06:44:11.567Z,99824.95
2023-01-30T06:45:15.394Z,99829.62
2023-01-30T06:46:19.130Z,99825.41
2023-01-30T06:47:23.236Z,99825.70
2023-01-30T06:48:26.100Z,99820.02
2023-01-30T06:49:29.413Z,99823.39
2023-01-30T06:50:33.967Z,99816.20
2023-01-30T06:51:37.199Z,99820.86
2023-01-30T06:52:44.017Z,99814.03
2023-01-30T06:53:47.593Z,99819.52
2023-01-30T06:54:51.011Z,99825.19
2023-01-30T06:55:53.591Z,99821.38
2023-01-30T06:56:56.749Z,99823.44
2023-01-30T06:58:08.312Z,99815.60
2023-01-30T06:59:13.909Z,99810.52
2023-01-30T07:00:19.951Z,99808.56
2023-01-30T07:01:23.549Z,99814.59
2023-01-30T07:02:29.569Z,99815.94
2023-01-30T07:03:36.903Z,99818.36
2023-01-30T07:04:43.342Z,99814.17
2023-01-30T07:05:49.677Z,99808.75
2023-01-30T07:06:52.847Z,99807.34
2023-01-30T07:07:55.537Z,99810.75
2023-01-30T07:08:59.154Z,99809.87
2023-01-30T07:10:08.262Z,99808.19
2023-01-30T07:11:08.131Z,99806.09
2023-01-30T07:12:11.531Z,99807.95
2023-01-30T07:13:16.559Z,99802.72
2023-01-30T07:14:22.439Z,99799.95
2023-01-30T07:15:25.601Z,99798.20
2023-01-30T07:16:29.986Z,99797.65
2023-01-30T07:17:33.240Z,99803.52
2023-01-30T07:18:37.543Z,99797.23
2023-01-30T07:19:41.185Z,99792.52
2023-01-30T07:20:47.299Z,99792.41
2023-01-30T07:21:51.137Z,99792.41
2023-01-30T07:22:56.431Z,99795.03
2023-01-30T07:24:00.530Z,99785.44
2023-01-30T07:25:04.463Z,99797.31
2023-01-30T07:26:09.991Z,99789.71
2023-01-30T07:27:13.658Z,99795.52
2023-01-30T07:28:16.945Z,99791.17
2023-01-30T07:29:20.458Z,99788.39
2023-01-30T07:30:22.829Z,99792.12
2023-01-30T07:31:26.468Z,99795.13
2023-01-30T07:32:30.783Z,99790.47
2023-01-30T07:33:33.005Z,99777.22
2023-01-30T07:34:36.313Z,99790.89
2023-01-30T07:35:38.780Z,99785.39
2023-01-30T07:36:42.177Z,99781.08
2023-01-30T07:37:46.201Z,99781.63
2023-01-30T07:38:50.541Z,99774.72
2023-01-30T07:39:53.830Z,99777.20
2023-01-30T07:40:57.261Z,99773.30
2023-01-30T07:42:03.919Z,99773.84
2023-01-30T07:43:08.624Z,99770.97
2023-01-30T07:44:13.371Z,99773.34
2023-01-30T07:45:16.342Z,99771.03
2023-01-30T07:46:20.920Z,99763.42
2023-01-30T07:47:26.063Z,99765.35
2023-01-30T07:48:29.219Z,99762.17
2023-01-30T07:49:36.277Z,99762.63
2023-01-30T07:50:39.431Z,99759.70
2023-01-30T07:51:46.493Z,99754.04
2023-01-30T07:52:50.218Z,99764.31
2023-01-30T07:53:53.349Z,99762.17
2023-01-30T07:55:00.034Z,99761.48
2023-01-30T07:56:14.672Z,99762.63
2023-01-30T07:57:18.877Z,99754.42
2023-01-30T07:58:22.356Z,99757.84
2023-01-30T07:59:25.866Z,99749.81
2023-01-30T08:00:29.264Z,99752.05
2023-01-30T08:01:34.624Z,99742.16
2023-01-30T08:02:38.765Z,99739.55
2023-01-30T08:03:45.181Z,99747.16
2023-01-30T08:04:48.863Z,99743.92
2023-01-30T08:05:53.579Z,99739.83
2023-01-30T08:06:58.021Z,99735.61
2023-01-30T08:08:01.366Z,99737.27
2023-01-30T08:09:04.090Z,99734.63
2023-01-30T08:10:09.326Z,99741.64
2023-01-30T08:11:12.771Z,99731.23
2023-01-30T08:12:16.893Z,99729.47
2023-01-30T08:13:20.091Z,99724.52
2023-01-30T08:14:24.675Z,99725.09
2023-01-30T08:15:27.939Z,99718.48
2023-01-30T08:16:34.479Z,99726.65
2023-01-30T08:17:37.979Z,99718.74
2023-01-30T08:18:41.367Z,99729.97
2023-01-30T08:19:44.679Z,99719.06
2023-01-30T08:20:48.076Z,99719.75
2023-01-30T08:21:54.294Z,99715.16
2023-01-30T08:22:59.054Z,99722.31
2023-01-30T08:24:07.574Z,99718.63
2023-01-30T08:25:11.724Z,99717.43
2023-01-30T08:26:16.641Z,99711.84
2023-01-30T08:27:20.095Z,99718.37
2023-01-30T08:28:23.785Z,99706.20
2023-01-30T08:29:26.339Z,99697.01
2023-01-30T08:30:31.066Z,99694.08
2023-01-30T08:31:34.751Z,99696.84
2023-01-30T08:32:37.795Z,99694.41
2023-01-30T08:33:42.460Z,99686.78
2023-01-30T08:34:45.658Z,99693.52
2023-01-30T08:35:48.112Z,99701.02
2023-01-30T08:36:51.098Z,99691.45
2023-01-30T08:37:53.358Z,99690.20
2023-01-30T08:38:57.573Z,99692.70
2023-01-30T08:40:04.093Z,99696.35
2023-01-30T08:41:08.657Z,99688.19
2023-01-30T08:42:12.388Z,99691.16
2023-01-30T08:43:17.273Z,99694.48
2023-01-30T08:44:19.598Z,99686.57
2023-01-30T08:45:22.906Z,99684.73
2023-01-30T08:46:29.023Z,99676.25
2023-01-30T08:47:33.595Z,99681.77
2023-01-30T08:48:49.486Z,99676.61
2023-01-30T08:49:46.113Z,99669.19
2023-01-30T08:50:51.490Z,99669.56
2023-01-30T08:51:54.925Z,99664.75
2023-01-30T08:52:58.606Z,99667.66
2023-01-30T08:54:03.466Z,99672.11
2023-01-30T08:55:07.294Z,99658.16
2023-01-30T08:56:10.997Z,99659.41
2023-01-30T08:57:14.714Z,99664.02
2023-01-30T08:58:17.819Z,99651.84
2023-01-30T08:59:23.080Z,99652.69
2023-01-30T09:00:29.368Z,99644.90
2023-01-30T09:01:32.734Z,99648.14
2023-01-30T09:02:36.864Z,99654.92
2023-01-30T09:03:40.648Z,99641.14
2023-01-30T09:04:43.011Z,99638.29
2023-01-30T09:05:46.864Z,99643.30
2023-01-30T09:06:49.601Z,99644.27
2023-01-30T09:07:53.763Z,99642.13
2023-01-30T09:08:57.065Z,99638.67
2023-01-30T09:10:00.960Z,99640.50
2023-01-30T09:11:05.510Z,99638.58
2023-01-30T09:12:08.893Z,99634.98
2023-01-30T09:13:12.588Z,99627.98
2023-01-30T09:14:20.831Z,99627.61
2023-01-30T09:15:23.254Z,99629.53
2023-01-30T09:16:26.811Z,99622.92
2023-01-30T09:17:30.288Z,99628.11
2023-01-30T09:18:36.442Z,99626.86
2023-01-30T09:19:40.443Z,99619.64
2023-01-30T09:20:44.045Z,99615.82
2023-01-30T09:21:50.197Z,99619.23
2023-01-30T09:22:53.521Z,99630.66
2023-01-30T09:23:56.232Z,99625.82
2023-01-30T09:25:01.609Z,99619.67
2023-01-30T09:26:04.597Z,99620.66
2023-01-30T09:27:07.781Z,99618.63
2023-01-30T09:28:10.360Z,99615.20
2023-01-30T09:29:14.697Z,99611.38
2023-01-30T09:30:19.013Z,99611.78
2023-01-30T09:31:23.260Z,99611.61
2023-01-30T09:32:30.279Z,99610.47
2023-01-30T09:33:33.508Z,99603.41
2023-01-30T09:34:36.919Z,99610.69
2023-01-30T09:35:40.135Z,99607.62
2023-01-30T09:36:45.000Z,99605.79
2023-01-30T09:37:49.219Z,99593.94
2023-01-30T09:38:52.507Z,99599.11
2023-01-30T09:39:56.218Z,99600.30
2023-01-30T09:41:01.510Z,99596.98
2023-01-30T09:42:07.814Z,99600.42
2023-01-30T09:43:12.199Z,99587.11
2023-01-30T09:44:29.237Z,99592.77
2023-01-30T09:45:37.663Z,99591.53
2023-01-30T09:46:45.515Z,99588.82
2023-01-30T09:48:08.699Z,99585.48
2023-01-30T09:49:15.969Z,99581.68
2023-01-30T09:50:30.015Z,99571.45
2023-01-30T09:51:37.160Z,99575.20
2023-01-30T09:52:59.325Z,99569.63
2023-01-30T09:54:09.671Z,99561.26
2023-01-30T09:55:27.892Z,99567.47
2023-01-30T09:56:30.781Z,99575.80
2023-01-30T09:57:35.343Z,99567.47
2023-01-30T09:58:40.570Z,99564.67
2023-01-30T09:59:59.785Z,99562.75
2023-01-30T10:01:04.773Z,99563.34
2023-01-30T10:02:15.267Z,99564.84
2023-01-30T10:03:20.739Z,99559.27
2023-01-30T10:04:25.959Z,99556.14
2023-01-30T10:05:35.204Z,99564.09
2023-01-30T10:06:40.338Z,99551.13
2023-01-30T10:07:46.228Z,99556.60
2023-01-30T10:08:55.076Z,99558.58
2023-01-30T10:10:01.131Z,99555.88
2023-01-30T10:11:10.737Z,99548.86
2023-01-30T10:12:17.183Z,99545.27
2023-01-30T10:13:23.693Z,99546.20
2023-01-30T10:14:44.248Z,99547.66
2023-01-30T10:16:06.379Z,99541.30
2023-01-30T10:17:27.413Z,99544.05
2023-01-30T10:18:32.699Z,99542.88
2023-01-30T10:19:36.938Z,99531.28
2023-01-30T10:20:59.127Z,99525.89
2023-01-30T10:22:11.306Z,99530.48
2023-01-30T10:23:16.058Z,99522.15
2023-01-30T10:24:33.035Z,99523.83
2023-01-30T10:25:37.577Z,99522.97
2023-01-30T10:26:42.877Z,99523.98
2023-01-30T10:27:55.194Z,99515.91
2023-01-30T10:29:16.303Z,99524.30
2023-01-30T10:30:21.253Z,99520.87
2023-01-30T10:31:26.909Z,99514.30
2023-01-30T10:32:32.772Z,99508.34
2023-01-30T10:33:40.767Z,99517.48
2023-01-30T10:34:45.776Z,99514.20
2023-01-30T10:35:49.853Z,99510.95
2023-01-30T10:36:53.999Z,99518.74
2023-01-30T10:38:20.656Z,99508.72
2023-01-30T10:39:28.369Z,99501.05
2023-01-30T10:40:33.754Z,99496.92
2023-01-30T10:41:39.386Z,99497.63
2023-01-30T10:42:44.743Z,99488.72
2023-01-30T10:43:52.557Z,99498.37
2023-01-30T10:44:58.955Z,99490.39
2023-01-30T10:46:17.059Z,99485.28
2023-01-30T10:47:46.303Z,99488.09
2023-01-30T10:48:52.712Z,99480.83
2023-01-30T10:49:59.756Z,99481.91
2023-01-30T10:51:08.026Z,99475.66
2023-01-30T10:52:13.369Z,99476.22
2023-01-30T10:53:20.007Z,99475.66
2023-01-30T10:54:27.572Z,99465.05
2023-01-30T10:55:40.269Z,99461.36
2023-01-30T10:56:52.008Z,99456.91
2023-01-30T10:58:10.153Z,99461.80
2023-01-30T10:59:18.045Z,99456.30
2023-01-30T11:00:29.385Z,99451.61
2023-01-30T11:01:34.574Z,99452.90
2023-01-30T11:02:39.961Z,99446.81
2023-01-30T11:03:55.496Z,99446.48
2023-01-30T11:05:00.959Z,99445.22
2023-01-30T11:06:05.712Z,99439.49
2023-01-30T11:07:09.743Z,99437.67
2023-01-30T11:09:39.106Z,99433.11
2023-01-30T11:10:42.383Z,99436.58
2023-01-30T11:11:46.538Z,99430.55
2023-01-30T11:12:51.524Z,99430.25
2023-01-30T11:14:07.692Z,99432.19
2023-01-30T11:15:12.715Z,99433.78
2023-01-30T11:16:16.573Z,99428.52
2023-01-30T11:17:21.182Z,99420.98
2023-01-30T11:19:35.401Z,99414.42
2023-01-30T11:20:41.399Z,99411.25
2023-01-30T11:21:46.167Z,99401.63
2023-01-30T11:22:59.953Z,99405.52
2023-01-30T11:25:21.170Z,99402.12
2023-01-30T11:26:34.746Z,99404.83
2023-01-30T11:27:33.203Z,99403.55
2023-01-30T11:28:38.536Z,99390.59
2023-01-30T11:29:42.239Z,99395.89
2023-01-30T11:30:47.237Z,99391.51
2023-01-30T11:31:51.743Z,99387.39
2023-01-30T11:32:57.293Z,99393.27
2023-01-30T11:34:01.924Z,99389.30
2023-01-30T11:35:07.295Z,99385.88
2023-01-30T11:36:15.633Z,99379.33
2023-01-30T11:37:27.043Z,99375.87
2023-01-30T11:38:31.380Z,99373.67
2023-01-30T11:39:35.853Z,99372.80
2023-01-30T11:40:40.488Z,99366.09
2023-01-30T11:41:45.478Z,99367.23
2023-01-30T11:42:50.731Z,99361.28
2023-01-30T11:43:55.283Z,99353.63
2023-01-30T11:45:16.811Z,99355.04
2023-01-30T11:46:09.969Z,99349.94
2023-01-30T11:47:15.290Z,99346.63
2023-01-30T11:48:33.129Z,99347.15
2023-01-30T11:49:48.151Z,99347.55
2023-01-30T11:50:40.870Z,99344.77
2023-01-30T11:51:45.036Z,99336.25
2023-01-30T11:52:48.747Z,99334.80
2023-01-30T11:53:54.991Z,99334.39
2023-01-30T11:55:04.912Z,99331.37
2023-01-30T11:56:24.377Z,99332.20
2023-01-30T11:57:28.107Z,99330.70
2023-01-30T11:58:33.395Z,99328.38
2023-01-30T11:59:38.245Z,99330.45
2023-01-30T12:00:43.216Z,99329.00
2023-01-30T12:01:46.875Z,99330.44
2023-01-30T12:02:54.760Z,99319.05
2023-01-30T12:03:58.741Z,99324.44
2023-01-30T12:05:04.146Z,99322.60
2023-01-30T12:06:07.841Z,99322.94
2023-01-30T12:07:21.995Z,99324.77
2023-01-30T12:08:40.487Z,99319.62
2023-01-30T12:09:33.914Z,99319.16
2023-01-30T12:10:38.468Z,99316.48
2023-01-30T12:11:46.709Z,99318.60
2023-01-30T12:12:52.346Z,99323.28
2023-01-30T12:13:59.116Z,99317.84
2023-01-30T12:15:03.773Z,99304.53
2023-01-30T12:16:21.821Z,99312.77
2023-01-30T12:17:31.142Z,99315.16
2023-01-30T12:18:41.963Z,99309.06
2023-01-30T12:19:53.186Z,99309.63
2023-01-30T12:20:58.272Z,99314.58
2023-01-30T12:22:10.729Z,99317.22
2023-01-30T12:23:27.307Z,99314.44
2023-01-30T12:24:53.265Z,99307.87
2023-01-30T12:26:16.913Z,99313.99
2023-01-30T12:27:23.365Z,99300.87
2023-01-30T12:28:29.307Z,99305.03
2023-01-30T12:29:35.615Z,99288.35
2023-01-30T12:31:44.389Z,99292.81
2023-01-30T12:32:47.581Z,99286.88
2023-01-30T12:33:50.586Z,99288.98
2023-01-30T12:34:54.720Z,99279.75
2023-01-30T12:35:59.246Z,99286.73
2023-01-30T12:37:03.475Z,99277.63
2023-01-30T12:38:12.263Z,99278.23
2023-01-30T12:39:16.435Z,99282.48
2023-01-30T12:40:38.126Z,99280.78
2023-01-30T12:41:43.511Z,99280.84
2023-01-30T12:42:55.920Z,99276.33
2023-01-30T12:44:03.530Z,99279.52
2023-01-30T12:45:09.899Z,99276.40
2023-01-30T12:46:28.946Z,99271.80
2023-01-30T12:47:36.676Z,99272.75
2023-01-30T12:49:13.486Z,99279.28
2023-01-30T12:50:06.534Z,99272.61
2023-01-30T12:51:23.617Z,99277.56
2023-01-30T12:52:45.808Z,99270.65
2023-01-30T12:53:49.951Z,99281.17
2023-01-30T12:55:01.073Z,99275.16
2023-01-30T12:56:06.141Z,99279.48